Time;durP1;ratioP1;P1;durP2;ratioP2;P2;SDS_P1;SDS_P2;PMS_P1;PMS_P2;Temp;Humidity;BMP_temperature;BMP_pressure;BME280_temperature;BME280_humidity;BME280_pressure;Samples;Min_cycle;Max_cycle;Signal;HPM_P1;HPM_P2
2023/02/28 00:00:25;;;;;;;6.57;4.43;;;6.00;55.60;;;;;;6276128;22;20430;-67
2023/02/28 00:02:51;;;;;;;8.53;5.00;;;6.00;56.00;;;;;;6276318;22;20030;-68
2023/02/28 00:05:21;;;;;;;10.70;4.60;;;6.00;56.60;;;;;;6276217;22;20381;-68
2023/02/28 00:07:47;;;;;;;7.20;4.60;;;6.00;56.90;;;;;;6276173;22;20015;-68
2023/02/28 00:10:20;;;;;;;6.37;4.07;;;6.00;57.10;;;;;;6276170;22;20003;-68
2023/02/28 00:12:47;;;;;;;8.20;4.83;;;6.00;56.60;;;;;;6276092;22;20008;-67
2023/02/28 00:15:13;;;;;;;7.33;4.23;;;5.90;56.50;;;;;;6276237;22;20046;-67
2023/02/28 00:17:38;;;;;;;7.93;4.40;;;6.00;56.70;;;;;;6276190;22;20366;-68
2023/02/28 00:20:09;;;;;;;7.77;4.70;;;5.90;56.30;;;;;;6276050;22;20022;-68
2023/02/28 00:22:36;;;;;;;8.37;4.53;;;5.90;56.70;;;;;;6275934;22;20049;-68
2023/02/28 00:25:03;;;;;;;8.07;4.33;;;6.00;56.70;;;;;;6276099;22;20071;-68
2023/02/28 00:27:29;;;;;;;8.50;4.30;;;6.00;56.00;;;;;;6276286;22;20045;-68
2023/02/28 00:29:55;;;;;;;9.57;4.67;;;6.00;56.40;;;;;;6276139;22;20031;-68
2023/02/28 00:32:20;;;;;;;8.10;4.17;;;6.00;56.00;;;;;;6276284;22;20003;-68
2023/02/28 00:34:46;;;;;;;6.73;4.13;;;6.00;55.60;;;;;;6276079;22;20004;-68
2023/02/28 00:37:12;;;;;;;7.37;4.30;;;6.00;55.60;;;;;;6274420;22;20369;-67
2023/02/28 00:39:39;;;;;;;8.80;4.60;;;6.00;56.00;;;;;;6275986;22;20023;-67
2023/02/28 00:42:05;;;;;;;8.37;4.53;;;6.00;56.30;;;;;;6275920;22;19996;-68
2023/02/28 00:44:32;;;;;;;8.17;4.50;;;6.00;56.20;;;;;;6275622;22;20003;-68
2023/02/28 00:46:58;;;;;;;7.77;4.80;;;6.00;56.20;;;;;;6275933;22;20314;-68
2023/02/28 00:49:25;;;;;;;7.80;4.90;;;6.00;56.30;;;;;;6275800;22;20026;-67
2023/02/28 00:51:51;;;;;;;7.13;4.40;;;6.00;56.50;;;;;;6275709;22;19996;-68
2023/02/28 00:54:17;;;;;;;7.50;4.67;;;6.00;56.40;;;;;;6275663;22;20007;-68
2023/02/28 00:56:42;;;;;;;9.03;4.93;;;6.00;56.60;;;;;;6275912;22;20000;-68
2023/02/28 00:59:08;;;;;;;8.67;4.70;;;6.00;57.00;;;;;;6275863;22;20039;-68
2023/02/28 01:01:34;;;;;;;12.30;4.77;;;6.00;57.20;;;;;;6275701;22;20011;-68
2023/02/28 01:04:00;;;;;;;7.17;4.60;;;6.00;56.80;;;;;;6274315;22;20012;-67
2023/02/28 01:06:26;;;;;;;8.67;4.77;;;6.00;57.20;;;;;;6276049;22;20050;-68
2023/02/28 01:08:51;;;;;;;6.83;4.57;;;5.90;57.90;;;;;;6277063;22;20031;-68
2023/02/28 01:11:18;;;;;;;6.13;4.10;;;6.00;58.00;;;;;;6277662;22;20006;-68
2023/02/28 01:13:45;;;;;;;10.43;5.07;;;5.90;58.50;;;;;;6277563;22;20427;-68
2023/02/28 01:16:11;;;;;;;7.63;4.87;;;6.00;59.20;;;;;;6277583;22;19999;-68
2023/02/28 01:18:37;;;;;;;8.00;5.23;;;6.00;58.50;;;;;;6277714;22;20007;-68
2023/02/28 01:21:05;;;;;;;7.90;5.07;;;6.00;58.60;;;;;;6278087;22;20003;-68
2023/02/28 01:23:31;;;;;;;7.17;4.50;;;6.00;58.80;;;;;;6277707;22;20077;-68
2023/02/28 01:25:57;;;;;;;8.60;5.47;;;5.90;57.90;;;;;;6275925;22;20411;-68
2023/02/28 01:28:22;;;;;;;8.13;4.37;;;5.90;58.70;;;;;;6277737;22;20410;-68
2023/02/28 01:30:51;;;;;;;6.93;4.90;;;5.90;59.30;;;;;;6277808;22;20004;-67
2023/02/28 01:33:17;;;;;;;8.07;4.67;;;5.90;57.60;;;;;;6277745;22;20000;-68
2023/02/28 01:35:42;;;;;;;6.70;4.77;;;5.80;57.60;;;;;;6277858;22;20115;-68
2023/02/28 01:38:08;;;;;;;9.17;5.27;;;5.80;57.50;;;;;;6277440;22;20010;-68
2023/02/28 01:40:34;;;;;;;10.60;5.60;;;5.80;57.40;;;;;;6277300;22;20004;-68
2023/02/28 01:42:59;;;;;;;8.17;4.93;;;5.70;57.20;;;;;;6277464;22;20369;-67
2023/02/28 01:45:34;;;;;;;8.23;4.77;;;5.80;57.80;;;;;;6277321;22;19999;-68
2023/02/28 01:48:05;;;;;;;8.17;4.87;;;5.70;57.90;;;;;;6277142;22;20023;-68
2023/02/28 01:50:37;;;;;;;8.87;5.77;;;5.80;58.10;;;;;;6277287;22;20003;-68
2023/02/28 01:53:06;;;;;;;9.13;6.03;;;5.80;57.50;;;;;;6277255;22;20004;-68
2023/02/28 01:55:33;;;;;;;12.57;6.13;;;5.80;57.40;;;;;;6277314;22;19996;-68
2023/02/28 01:58:04;;;;;;;9.53;6.03;;;5.90;57.30;;;;;;6276069;22;20000;-68
2023/02/28 02:00:30;;;;;;;10.43;6.40;;;5.90;57.40;;;;;;6274005;22;20018;-67
2023/02/28 02:02:59;;;;;;;10.27;6.63;;;5.90;57.50;;;;;;6273864;22;20394;-68
2023/02/28 02:05:28;;;;;;;10.20;5.80;;;5.90;57.80;;;;;;6276031;22;20057;-68
2023/02/28 02:08:15;;;;;;;14.00;5.90;;;5.80;58.20;;;;;;6275318;22;20073;-68
2023/02/28 02:10:53;;;;;;;10.20;6.23;;;5.80;58.60;;;;;;6277162;22;20004;-68
2023/02/28 02:13:37;;;;;;;14.10;6.93;;;5.80;58.50;;;;;;6276814;22;20038;-68
2023/02/28 02:16:14;;;;;;;9.63;6.57;;;5.80;58.50;;;;;;6277216;22;20007;-68
2023/02/28 02:19:14;;;;;;;8.90;5.43;;;5.80;58.90;;;;;;6277309;22;20082;-68
2023/02/28 02:22:02;;;;;;;8.77;5.30;;;5.70;58.80;;;;;;6276761;22;20434;-68
2023/02/28 02:24:54;;;;;;;9.67;6.00;;;5.70;59.10;;;;;;6276529;22;19996;-67
2023/02/28 02:27:48;;;;;;;8.48;5.90;;;5.80;58.80;;;;;;6277119;22;20010;-68
2023/02/28 02:30:13;;;;;;;;;;;5.80;58.00;;;;;;6276235;22;20004;-69
2023/02/28 02:33:11;;;;;;;9.77;5.53;;;5.80;58.00;;;;;;6276732;22;19910;-68
2023/02/28 02:36:13;;;;;;;11.67;5.77;;;5.70;58.20;;;;;;6239850;22;20098;-68
2023/02/28 02:39:10;;;;;;;9.07;5.23;;;5.70;58.50;;;;;;6241784;22;20000;-68
2023/02/28 02:41:50;;;;;;;10.50;5.90;;;5.70;58.40;;;;;;6276161;22;20003;-68
2023/02/28 02:44:34;;;;;;;12.50;5.10;;;5.60;58.60;;;;;;6274705;22;20325;-67
2023/02/28 02:47:07;;;;;;;9.90;5.80;;;5.60;58.60;;;;;;6276296;22;20065;-68
2023/02/28 02:49:36;;;;;;;12.33;6.03;;;5.60;58.30;;;;;;6276145;22;20011;-68
2023/02/28 02:52:06;;;;;;;9.63;5.87;;;5.60;58.30;;;;;;6276483;22;20326;-68
2023/02/28 02:54:43;;;;;;;9.67;5.77;;;5.60;58.10;;;;;;6276352;22;20042;-68
2023/02/28 02:57:15;;;;;;;8.53;5.40;;;5.60;58.40;;;;;;6276512;22;20030;-68
2023/02/28 02:59:43;;;;;;;8.05;5.03;;;5.60;58.40;;;;;;6276685;22;20000;-68
2023/02/28 03:02:12;;;;;;;9.47;5.87;;;5.60;58.70;;;;;;6276123;22;20019;-68
2023/02/28 03:05:02;;;;;;;7.73;5.30;;;5.60;58.90;;;;;;6276608;22;19999;-67
2023/02/28 03:07:28;;;;;;;11.27;5.40;;;5.60;59.20;;;;;;6276228;22;20069;-68
2023/02/28 03:09:55;;;;;;;9.80;5.93;;;5.60;58.90;;;;;;6276172;22;20435;-67
2023/02/28 03:12:28;;;;;;;10.17;5.37;;;5.60;58.40;;;;;;6276199;22;20031;-67
2023/02/28 03:15:24;;;;;;;10.32;6.25;;;5.60;58.50;;;;;;6276414;22;20012;-68
2023/02/28 03:18:15;;;;;;;9.17;5.83;;;5.60;58.60;;;;;;6271198;22;20000;-68
2023/02/28 03:21:06;;;;;;;9.67;5.50;;;5.60;58.80;;;;;;6275757;22;20366;-68
2023/02/28 03:23:55;;;;;;;11.33;5.40;;;5.60;59.00;;;;;;6276279;22;20027;-67
2023/02/28 03:26:27;;;;;;;9.00;5.53;;;5.50;58.90;;;;;;6276233;22;20438;-68
2023/02/28 03:29:03;;;;;;;9.37;5.83;;;5.50;59.10;;;;;;6276248;22;20434;-67
2023/02/28 03:31:29;;;;;;;9.93;5.83;;;5.50;59.00;;;;;;6275815;22;20007;-67
2023/02/28 03:34:26;;;;;;;8.60;5.30;;;5.50;58.80;;;;;;6275963;22;20003;-68
2023/02/28 03:36:56;;;;;;;9.70;5.87;;;5.50;59.10;;;;;;6263570;22;20275;-68
2023/02/28 03:39:31;;;;;;;13.43;6.10;;;5.50;59.10;;;;;;6276275;22;20003;-66
2023/02/28 03:42:08;;;;;;;8.93;6.20;;;5.60;59.20;;;;;;6276100;22;20004;-67
2023/02/28 03:44:45;;;;;;;13.00;6.10;;;5.60;59.20;;;;;;6276009;22;20003;-68
2023/02/28 03:47:19;;;;;;;9.20;5.37;;;5.60;59.40;;;;;;6275700;22;20006;-68
2023/02/28 03:49:52;;;;;;;11.70;6.00;;;5.50;59.90;;;;;;6276009;22;20495;-68
2023/02/28 03:52:20;;;;;;;9.05;5.22;;;5.50;59.80;;;;;;6276046;22;20038;-67
2023/02/28 03:54:51;;;;;;;9.57;6.03;;;5.50;59.70;;;;;;6276070;22;20030;-68
2023/02/28 03:57:56;;;;;;;10.10;5.30;;;5.60;59.60;;;;;;6276020;22;19999;-67
2023/02/28 04:00:32;;;;;;;9.50;5.43;;;5.50;59.40;;;;;;6275949;22;20074;-68
2023/02/28 04:02:58;;;;;;;8.70;5.53;;;5.50;59.40;;;;;;6276514;22;20030;-67
2023/02/28 04:05:25;;;;;;;8.27;5.30;;;5.50;59.80;;;;;;6276229;22;20076;-68
2023/02/28 04:07:51;;;;;;;19.50;13.40;;;5.50;60.10;;;;;;6275495;22;20113;-68
2023/02/28 04:10:17;;;;;;;16.63;10.57;;;5.50;60.60;;;;;;6274284;22;20505;-68
2023/02/28 04:12:43;;;;;;;12.87;8.30;;;5.50;60.40;;;;;;6276005;22;20369;-68
2023/02/28 04:15:10;;;;;;;10.63;6.53;;;5.50;61.10;;;;;;6275618;22;20002;-68
2023/02/28 04:17:36;;;;;;;10.23;5.60;;;5.50;61.20;;;;;;6275637;22;19999;-68
2023/02/28 04:20:03;;;;;;;10.40;5.67;;;5.40;61.00;;;;;;6275818;22;20422;-67
2023/02/28 04:22:28;;;;;;;9.17;5.50;;;5.40;61.00;;;;;;6276072;22;20130;-68
2023/02/28 04:24:54;;;;;;;9.33;5.53;;;5.40;61.00;;;;;;6275407;22;20031;-67
2023/02/28 04:27:21;;;;;;;14.63;5.93;;;5.40;60.80;;;;;;6275408;22;20006;-67
2023/02/28 04:29:47;;;;;;;12.77;5.87;;;5.40;61.10;;;;;;6275683;22;20026;-67
2023/02/28 04:32:12;;;;;;;11.23;5.40;;;5.40;61.50;;;;;;6275751;22;20355;-67
2023/02/28 04:34:38;;;;;;;8.17;4.97;;;5.30;61.50;;;;;;6276030;22;20010;-67
2023/02/28 04:37:04;;;;;;;7.27;5.10;;;5.30;61.00;;;;;;6275986;22;20004;-68
2023/02/28 04:39:30;;;;;;;8.80;5.70;;;5.30;61.40;;;;;;6275993;22;20010;-68
2023/02/28 04:41:56;;;;;;;8.10;5.23;;;5.30;61.40;;;;;;6275243;22;20324;-68
2023/02/28 04:44:22;;;;;;;9.83;5.07;;;5.20;61.20;;;;;;6277286;22;20083;-67
2023/02/28 04:46:48;;;;;;;7.80;5.50;;;5.20;61.10;;;;;;6277597;22;20000;-67
2023/02/28 04:49:15;;;;;;;8.80;5.67;;;5.20;61.30;;;;;;6277540;22;20012;-67
2023/02/28 04:51:41;;;;;;;8.30;5.40;;;5.10;61.40;;;;;;6277767;22;19996;-67
2023/02/28 04:54:07;;;;;;;8.83;5.47;;;5.20;61.80;;;;;;6277620;22;20011;-69
2023/02/28 04:56:33;;;;;;;10.57;5.60;;;5.20;61.90;;;;;;6277785;22;19996;-68
2023/02/28 04:58:59;;;;;;;9.53;5.57;;;5.20;62.00;;;;;;6277616;22;20078;-68
2023/02/28 05:01:28;;;;;;;9.53;5.73;;;5.20;62.00;;;;;;6277358;22;20449;-68
2023/02/28 05:03:56;;;;;;;8.10;5.57;;;5.20;61.90;;;;;;6278115;22;20007;-69
2023/02/28 05:06:24;;;;;;;7.37;5.20;;;5.20;61.60;;;;;;6277633;22;20328;-66
2023/02/28 05:08:50;;;;;;;8.97;5.40;;;5.20;61.60;;;;;;6277173;22;20012;-68
2023/02/28 05:11:18;;;;;;;31.53;17.43;;;5.10;61.40;;;;;;6277264;22;20478;-68
2023/02/28 05:13:44;;;;;;;30.17;16.10;;;5.10;61.20;;;;;;6277775;22;20303;-68
2023/02/28 05:16:10;;;;;;;19.03;10.10;;;5.00;61.90;;;;;;6277855;22;19996;-68
2023/02/28 05:18:36;;;;;;;14.00;7.80;;;5.00;62.00;;;;;;6277670;22;20015;-68
2023/02/28 05:21:04;;;;;;;11.73;6.53;;;5.00;62.50;;;;;;6277580;22;20326;-70
2023/02/28 05:23:30;;;;;;;10.83;6.50;;;5.00;62.50;;;;;;6277517;22;20007;-69
2023/02/28 05:25:56;;;;;;;9.60;6.27;;;5.00;62.10;;;;;;6276908;22;19999;-67
2023/02/28 05:28:22;;;;;;;10.23;6.13;;;5.00;61.90;;;;;;6277358;22;20016;-67
2023/02/28 05:30:48;;;;;;;9.33;6.67;;;5.00;61.90;;;;;;6277644;22;20552;-68
2023/02/28 05:33:14;;;;;;;9.20;5.90;;;4.90;62.50;;;;;;6277475;22;20012;-67
2023/02/28 05:35:40;;;;;;;11.97;6.80;;;4.90;62.70;;;;;;6277416;22;20296;-68
2023/02/28 05:38:07;;;;;;;17.40;7.53;;;4.90;63.00;;;;;;6277350;22;20008;-68
2023/02/28 05:40:32;;;;;;;16.97;10.17;;;4.90;62.90;;;;;;6277190;22;20018;-67
2023/02/28 05:42:58;;;;;;;17.67;10.80;;;4.90;62.50;;;;;;6277186;22;20003;-67
2023/02/28 05:45:23;;;;;;;14.07;9.60;;;4.90;62.80;;;;;;6277356;22;19999;-67
2023/02/28 05:47:53;;;;;;;16.07;8.57;;;4.90;63.60;;;;;;6276770;22;20449;-67
2023/02/28 05:50:19;;;;;;;15.90;9.10;;;4.80;63.90;;;;;;6276823;22;20414;-67
2023/02/28 05:52:48;;;;;;;12.40;8.30;;;4.80;63.80;;;;;;6277110;22;20078;-67
2023/02/28 05:55:14;;;;;;;12.63;8.03;;;4.80;63.90;;;;;;6276358;22;20004;-68
2023/02/28 05:57:40;;;;;;;12.70;8.47;;;4.80;63.60;;;;;;6277345;22;20317;-67
2023/02/28 06:00:06;;;;;;;13.90;8.03;;;4.80;63.90;;;;;;6276962;22;20030;-68
2023/02/28 06:02:32;;;;;;;15.00;8.40;;;4.80;64.20;;;;;;6277361;22;20007;-67
2023/02/28 06:04:57;;;;;;;12.53;8.03;;;4.80;64.00;;;;;;6276790;22;20014;-67
2023/02/28 06:07:23;;;;;;;10.50;7.20;;;4.80;64.30;;;;;;6276773;22;20004;-67
2023/02/28 06:09:49;;;;;;;11.23;7.40;;;4.80;64.20;;;;;;6277050;22;20027;-68
2023/02/28 06:12:14;;;;;;;11.43;6.87;;;4.80;64.40;;;;;;6276980;22;20054;-67
2023/02/28 06:14:40;;;;;;;13.53;7.03;;;4.70;64.40;;;;;;6276928;22;20008;-68
2023/02/28 06:17:06;;;;;;;10.23;6.87;;;4.70;64.70;;;;;;6276652;22;20326;-68
2023/02/28 06:19:32;;;;;;;12.17;7.00;;;4.70;64.40;;;;;;6276496;22;20415;-68
2023/02/28 06:21:59;;;;;;;12.53;6.67;;;4.70;64.60;;;;;;6274973;22;20007;-68
2023/02/28 06:24:27;;;;;;;14.10;7.00;;;4.70;64.40;;;;;;6276818;22;20107;-67
2023/02/28 06:26:53;;;;;;;10.80;6.97;;;4.70;64.40;;;;;;6276657;22;19999;-68
2023/02/28 06:29:19;;;;;;;10.03;6.43;;;4.70;64.70;;;;;;6276193;22;20012;-67
2023/02/28 06:31:46;;;;;;;10.37;6.27;;;4.70;64.80;;;;;;6276422;22;19999;-68
2023/02/28 06:34:12;;;;;;;12.40;6.67;;;4.70;65.10;;;;;;6276345;22;19999;-68
2023/02/28 06:36:39;;;;;;;9.93;5.73;;;4.70;65.10;;;;;;6276343;22;20027;-68
2023/02/28 06:39:05;;;;;;;8.30;5.40;;;4.70;65.00;;;;;;6276878;22;20011;-68
2023/02/28 06:41:31;;;;;;;9.73;5.53;;;4.70;65.00;;;;;;6276840;22;19996;-67
2023/02/28 06:43:57;;;;;;;9.77;5.93;;;4.70;65.00;;;;;;6276667;22;20049;-68
2023/02/28 06:46:23;;;;;;;10.00;6.37;;;4.80;65.20;;;;;;6276522;22;20069;-68
2023/02/28 06:48:49;;;;;;;11.37;6.93;;;4.80;65.10;;;;;;6277130;22;20016;-68
2023/02/28 06:51:20;;;;;;;16.70;6.13;;;4.80;65.30;;;;;;6276711;22;20465;-68
2023/02/28 06:53:46;;;;;;;20.03;11.07;;;4.80;65.20;;;;;;6276784;22;20319;-68
2023/02/28 06:56:13;;;;;;;14.47;8.93;;;4.90;65.00;;;;;;6276396;22;19999;-67
2023/02/28 06:58:40;;;;;;;17.10;6.80;;;4.90;65.20;;;;;;6276805;22;19996;-68
2023/02/28 07:01:06;;;;;;;14.43;6.60;;;4.90;65.50;;;;;;6276838;22;20034;-67
2023/02/28 07:03:32;;;;;;;13.47;6.37;;;4.90;65.60;;;;;;6276517;22;20415;-67
2023/02/28 07:05:59;;;;;;;11.90;5.97;;;5.00;65.60;;;;;;6276468;22;20012;-66
2023/02/28 07:08:26;;;;;;;20.47;13.17;;;5.00;65.10;;;;;;6276145;22;20027;-68
2023/02/28 07:10:53;;;;;;;10.23;6.80;;;5.10;65.20;;;;;;6276567;22;20095;-68
2023/02/28 07:13:19;;;;;;;10.40;6.00;;;5.10;64.80;;;;;;6276459;22;20031;-68
2023/02/28 07:15:44;;;;;;;9.10;5.40;;;5.20;64.30;;;;;;6276281;22;20090;-68
2023/02/28 07:18:10;;;;;;;10.97;5.60;;;5.30;64.10;;;;;;6276124;22;20003;-68
2023/02/28 07:20:36;;;;;;;8.80;5.50;;;5.40;64.10;;;;;;6275913;22;20426;-68
2023/02/28 07:23:01;;;;;;;7.50;5.17;;;5.40;63.90;;;;;;6276569;22;20000;-69
2023/02/28 07:25:28;;;;;;;9.93;5.47;;;5.50;63.40;;;;;;6276219;22;20330;-68
2023/02/28 07:27:55;;;;;;;11.87;4.97;;;5.60;64.00;;;;;;6276218;22;20015;-68
2023/02/28 07:30:22;;;;;;;8.47;5.10;;;5.60;63.00;;;;;;6275780;22;20038;-68
2023/02/28 07:32:48;;;;;;;8.70;5.00;;;5.70;62.70;;;;;;6276219;22;20429;-67
2023/02/28 07:35:15;;;;;;;8.00;5.10;;;5.80;62.90;;;;;;6276364;22;20077;-68
2023/02/28 07:37:41;;;;;;;10.37;5.00;;;5.80;62.80;;;;;;6276114;22;20424;-67
2023/02/28 07:40:11;;;;;;;8.50;5.20;;;5.90;62.80;;;;;;6274297;22;20003;-67
2023/02/28 07:42:37;;;;;;;7.77;5.03;;;5.90;62.60;;;;;;6274894;22;20054;-69
2023/02/28 07:45:04;;;;;;;7.03;5.00;;;6.00;62.20;;;;;;6275226;22;19996;-69
2023/02/28 07:47:31;;;;;;;9.57;5.13;;;6.00;62.00;;;;;;6275150;22;20015;-70
2023/02/28 07:49:57;;;;;;;9.83;5.33;;;6.10;62.30;;;;;;6275523;22;20396;-66
2023/02/28 07:52:23;;;;;;;10.23;5.50;;;6.10;62.30;;;;;;6275580;22;20426;-67
2023/02/28 07:54:50;;;;;;;17.97;5.87;;;6.20;62.20;;;;;;6275480;22;20480;-68
2023/02/28 07:57:16;;;;;;;9.60;5.80;;;6.20;62.40;;;;;;6273626;22;20004;-67
2023/02/28 07:59:42;;;;;;;11.03;5.70;;;6.30;61.70;;;;;;6275479;22;19996;-67
2023/02/28 08:02:15;;;;;;;8.40;5.47;;;6.30;62.00;;;;;;6275396;22;20014;-68
2023/02/28 08:04:41;;;;;;;6.70;5.00;;;6.40;61.50;;;;;;6275358;22;20323;-67
2023/02/28 08:07:07;;;;;;;12.43;5.57;;;6.40;61.90;;;;;;6275429;22;20000;-67
2023/02/28 08:09:34;;;;;;;9.83;5.47;;;6.50;61.40;;;;;;6275432;22;20069;-66
2023/02/28 08:11:59;;;;;;;7.27;4.87;;;6.50;61.40;;;;;;6273667;22;20299;-66
2023/02/28 08:14:25;;;;;;;8.03;5.10;;;6.50;61.40;;;;;;6275429;22;20000;-66
2023/02/28 08:16:51;;;;;;;7.07;5.00;;;6.60;61.30;;;;;;6275440;22;20003;-66
2023/02/28 08:19:17;;;;;;;7.77;5.03;;;6.60;61.30;;;;;;6274852;22;20026;-67
2023/02/28 08:21:42;;;;;;;6.90;4.57;;;6.70;61.20;;;;;;6275435;22;20019;-66
2023/02/28 08:24:08;;;;;;;6.93;4.60;;;6.80;60.80;;;;;;6275639;22;20007;-67
2023/02/28 08:26:34;;;;;;;9.20;5.13;;;6.80;60.50;;;;;;6275666;22;20031;-67
2023/02/28 08:29:00;;;;;;;7.47;4.10;;;6.80;60.50;;;;;;6275145;22;20011;-68
2023/02/28 08:31:25;;;;;;;7.37;4.40;;;6.90;60.30;;;;;;6274733;22;20338;-68
2023/02/28 08:33:52;;;;;;;7.07;4.10;;;7.00;60.10;;;;;;6275199;22;20019;-68
2023/02/28 08:36:19;;;;;;;6.83;4.13;;;7.00;60.00;;;;;;6274309;22;20083;-69
2023/02/28 08:38:45;;;;;;;8.47;4.10;;;7.00;60.20;;;;;;6275697;22;20004;-68
2023/02/28 08:41:12;;;;;;;6.40;4.27;;;7.10;59.40;;;;;;6275715;22;20004;-68
2023/02/28 08:43:39;;;;;;;8.30;4.40;;;7.10;59.70;;;;;;6275248;22;20078;-68
2023/02/28 08:46:06;;;;;;;5.43;4.13;;;7.20;58.90;;;;;;6275712;22;20075;-68
2023/02/28 08:48:34;;;;;;;6.97;4.27;;;7.20;59.50;;;;;;6275268;22;20020;-68
2023/02/28 08:51:03;;;;;;;6.60;4.30;;;7.30;59.10;;;;;;6275444;22;20004;-68
2023/02/28 08:53:29;;;;;;;5.53;3.77;;;7.30;59.20;;;;;;6275458;22;20300;-68
2023/02/28 08:55:59;;;;;;;7.03;4.17;;;7.40;59.20;;;;;;6275066;22;20010;-68
2023/02/28 08:58:25;;;;;;;5.90;4.17;;;7.40;59.40;;;;;;6275099;22;20003;-69
2023/02/28 09:00:51;;;;;;;7.20;4.20;;;7.50;58.60;;;;;;6275011;22;20071;-69
2023/02/28 09:03:17;;;;;;;6.80;4.43;;;7.50;58.40;;;;;;6275567;22;20438;-68
2023/02/28 09:06:00;;;;;;;6.53;3.90;;;7.40;58.10;;;;;;6275652;22;20003;-69
2023/02/28 09:08:28;;;;;;;8.33;4.07;;;7.40;57.90;;;;;;6274942;22;20015;-69
2023/02/28 09:10:56;;;;;;;7.33;4.00;;;7.40;58.50;;;;;;6275163;22;20023;-69
2023/02/28 09:13:22;;;;;;;8.17;4.23;;;7.40;58.90;;;;;;6275794;22;20095;-68
2023/02/28 09:15:48;;;;;;;7.97;4.47;;;7.40;58.50;;;;;;6275728;22;20186;-65
2023/02/28 09:18:14;;;;;;;6.10;4.30;;;7.50;59.10;;;;;;6275436;22;20006;-68
2023/02/28 09:20:41;;;;;;;5.83;3.93;;;7.50;58.40;;;;;;6275222;22;20004;-68
2023/02/28 09:23:08;;;;;;;6.77;3.70;;;7.60;58.50;;;;;;6275770;22;20004;-68
2023/02/28 09:25:33;;;;;;;6.47;4.10;;;7.60;58.40;;;;;;6275449;22;20111;-68
2023/02/28 09:27:59;;;;;;;6.53;4.13;;;7.70;58.50;;;;;;6275006;22;20077;-68
2023/02/28 09:30:25;;;;;;;6.27;3.97;;;7.70;57.40;;;;;;6277313;22;20010;-69
2023/02/28 09:32:54;;;;;;;7.70;4.23;;;7.70;58.00;;;;;;6277481;22;20004;-68
2023/02/28 09:35:20;;;;;;;5.87;4.03;;;7.70;58.40;;;;;;6277373;22;20061;-68
2023/02/28 09:37:47;;;;;;;10.70;4.33;;;7.80;58.30;;;;;;6276792;22;20003;-69
2023/02/28 09:40:17;;;;;;;58.80;7.03;;;7.80;57.90;;;;;;6276389;22;20049;-68
2023/02/28 09:42:46;;;;;;;10.23;4.33;;;7.80;58.20;;;;;;6276815;22;20001;-68
2023/02/28 09:45:37;;;;;;;17.03;5.03;;;7.80;58.10;;;;;;6277018;22;20004;-69
2023/02/28 09:48:12;;;;;;;6.53;4.10;;;7.80;57.60;;;;;;6276604;22;20020;-68
2023/02/28 09:50:47;;;;;;;12.37;4.47;;;7.90;58.60;;;;;;6277318;22;20430;-68
2023/02/28 09:53:26;;;;;;;6.93;4.27;;;8.00;57.50;;;;;;6276982;22;20003;-68
2023/02/28 09:55:58;;;;;;;8.57;4.33;;;8.00;58.10;;;;;;6277088;22;20150;-67
2023/02/28 09:58:39;;;;;;;12.07;4.20;;;8.20;58.40;;;;;;6277212;22;20016;-68
2023/02/28 10:01:23;;;;;;;6.77;4.57;;;8.30;58.20;;;;;;6277237;22;20072;-69
2023/02/28 10:03:58;;;;;;;6.53;4.27;;;8.40;57.30;;;;;;6276783;22;19995;-68
2023/02/28 10:06:30;;;;;;;11.40;4.27;;;8.50;56.90;;;;;;6276506;22;20075;-69
2023/02/28 10:09:22;;;;;;;65.35;9.23;;;8.60;57.10;;;;;;6275974;22;20037;-68
2023/02/28 10:11:51;;;;;;;40.17;7.37;;;8.70;56.90;;;;;;6276368;22;20311;-68
2023/02/28 10:14:23;;;;;;;7.80;4.40;;;8.80;56.80;;;;;;6276906;22;20007;-68
2023/02/28 10:16:55;;;;;;;6.40;3.92;;;8.80;55.80;;;;;;6276889;22;20075;-69
2023/02/28 10:19:34;;;;;;;6.03;3.80;;;8.90;56.10;;;;;;6277161;22;20436;-68
2023/02/28 10:22:11;;;;;;;7.77;4.43;;;8.90;56.20;;;;;;6276817;22;20385;-68
2023/02/28 10:24:43;;;;;;;7.67;4.40;;;9.00;56.70;;;;;;6276689;22;20006;-68
2023/02/28 10:27:21;;;;;;;7.17;4.27;;;9.10;56.80;;;;;;6277243;22;20371;-68
2023/02/28 10:29:52;;;;;;;5.37;4.10;;;9.10;55.70;;;;;;6277151;22;20390;-69
2023/02/28 10:32:20;;;;;;;14.83;4.37;;;9.30;55.80;;;;;;6276786;22;20077;-68
2023/02/28 10:35:00;;;;;;;5.17;3.87;;;9.30;55.80;;;;;;6276670;22;20071;-68
2023/02/28 10:37:26;;;;;;;5.73;3.87;;;9.40;55.60;;;;;;6276800;22;20003;-68
2023/02/28 10:39:53;;;;;;;5.87;3.80;;;9.50;54.40;;;;;;6276477;22;20492;-68
2023/02/28 10:42:27;;;;;;;28.83;6.20;;;9.50;54.10;;;;;;6276016;22;20434;-68
2023/02/28 10:45:06;;;;;;;8.13;4.20;;;9.60;54.70;;;;;;6274236;22;20007;-68
2023/02/28 10:47:36;;;;;;;6.00;4.07;;;9.60;53.00;;;;;;6275507;22;20391;-68
2023/02/28 10:50:02;;;;;;;7.60;4.40;;;9.60;54.10;;;;;;6276968;22;20011;-68
2023/02/28 10:52:38;;;;;;;6.93;4.17;;;9.60;54.00;;;;;;6277092;22;20000;-69
2023/02/28 10:55:28;;;;;;;8.93;4.23;;;9.70;53.90;;;;;;6276595;22;20004;-68
2023/02/28 10:57:54;;;;;;;10.47;4.33;;;9.70;53.80;;;;;;6276417;22;20334;-68
2023/02/28 11:00:25;;;;;;;6.23;4.03;;;9.70;53.60;;;;;;6276524;22;20000;-66
2023/02/28 11:02:51;;;;;;;7.20;4.17;;;9.80;53.40;;;;;;6276517;22;20027;-69
2023/02/28 11:05:35;;;;;;;10.03;4.90;;;9.90;53.90;;;;;;6276222;22;19995;-68
2023/02/28 11:08:13;;;;;;;7.30;4.37;;;9.90;53.10;;;;;;6276265;22;20073;-68
2023/02/28 11:10:44;;;;;;;8.43;4.47;;;9.90;52.40;;;;;;6276482;22;20000;-69
2023/02/28 11:13:19;;;;;;;6.87;4.60;;;10.00;53.20;;;;;;6276263;22;20445;-68
2023/02/28 11:15:53;;;;;;;8.37;4.53;;;10.00;52.70;;;;;;6276233;22;20031;-68
2023/02/28 11:18:30;;;;;;;9.37;4.70;;;10.00;51.90;;;;;;6276751;22;20034;-69
2023/02/28 11:20:58;;;;;;;7.27;4.93;;;10.10;52.60;;;;;;6276447;22;20426;-68
2023/02/28 11:23:27;;;;;;;7.50;4.50;;;10.10;52.30;;;;;;6276522;22;20004;-69
2023/02/28 11:25:56;;;;;;;9.40;4.70;;;10.00;52.00;;;;;;6276452;22;19995;-69
2023/02/28 11:28:38;;;;;;;8.03;4.83;;;10.00;51.90;;;;;;6276361;22;20338;-68
2023/02/28 11:31:16;;;;;;;6.47;4.70;;;10.00;51.80;;;;;;6276561;22;20011;-68
2023/02/28 11:33:54;;;;;;;7.10;4.97;;;10.00;52.50;;;;;;6276075;22;20323;-68
2023/02/28 11:36:29;;;;;;;6.73;5.10;;;10.10;52.50;;;;;;6276406;22;20330;-68
2023/02/28 11:39:16;;;;;;;7.93;5.10;;;10.10;52.20;;;;;;6276055;22;20049;-68
2023/02/28 11:42:09;;;;;;;8.27;5.00;;;10.10;51.60;;;;;;6276021;22;20366;-68
2023/02/28 11:44:54;;;;;;;11.27;5.33;;;10.10;52.00;;;;;;6276362;22;20074;-68
2023/02/28 11:47:48;;;;;;;8.97;5.10;;;10.10;51.90;;;;;;6276066;22;20006;-68
2023/02/28 11:50:51;;;;;;;7.93;4.97;;;10.10;52.30;;;;;;6276106;22;20086;-66
2023/02/28 11:53:56;;;;;;;7.78;5.18;;;10.20;52.10;;;;;;6275823;22;20369;-68
2023/02/28 11:56:46;;;;;;;7.90;5.50;;;10.20;51.60;;;;;;6276487;22;20084;-67
2023/02/28 11:59:24;;;;;;;8.80;5.30;;;10.20;51.70;;;;;;6276301;22;19999;-68
2023/02/28 12:02:40;;;;;;;9.83;5.73;;;10.30;51.50;;;;;;6275911;22;20022;-68
2023/02/28 12:05:30;;;;;;;7.63;5.03;;;10.30;51.90;;;;;;6273446;22;20078;-69
2023/02/28 12:08:06;;;;;;;8.03;5.17;;;10.30;51.30;;;;;;6276209;22;20010;-68
2023/02/28 12:10:52;;;;;;;8.90;5.10;;;10.40;51.90;;;;;;6276102;22;20004;-68
2023/02/28 12:13:28;;;;;;;7.57;5.40;;;10.50;51.90;;;;;;6264883;22;20021;-67
2023/02/28 12:16:12;;;;;;;6.80;4.80;;;10.50;52.00;;;;;;6275658;22;20016;-69
2023/02/28 12:18:47;;;;;;;8.83;5.10;;;10.60;51.40;;;;;;6275739;22;20070;-68
2023/02/28 12:21:14;;;;;;;8.37;4.73;;;10.70;51.40;;;;;;6276184;22;20000;-68
2023/02/28 12:23:54;;;;;;;7.37;4.70;;;10.80;51.60;;;;;;6274066;22;20004;-68
2023/02/28 12:26:29;;;;;;;12.07;4.30;;;10.90;51.20;;;;;;6276203;22;20050;-68
2023/02/28 12:29:10;;;;;;;7.07;4.70;;;11.00;50.40;;;;;;6275949;22;20008;-68
2023/02/28 12:31:40;;;;;;;6.50;4.33;;;11.00;50.30;;;;;;6276081;22;20025;-68
2023/02/28 12:34:13;;;;;;;6.10;4.20;;;11.00;49.90;;;;;;6276084;22;20000;-68
2023/02/28 12:36:41;;;;;;;6.78;4.20;;;11.00;49.30;;;;;;6276064;22;20003;-68
2023/02/28 12:39:28;;;;;;;12.97;5.07;;;11.00;49.50;;;;;;6275659;22;20004;-68
2023/02/28 12:41:56;;;;;;;8.43;4.43;;;11.10;49.40;;;;;;6275713;22;20312;-68
2023/02/28 12:44:30;;;;;;;7.83;4.90;;;11.10;49.50;;;;;;6275836;22;20004;-68
2023/02/28 12:47:01;;;;;;;7.60;4.50;;;11.10;49.40;;;;;;6275893;22;20000;-68
2023/02/28 12:49:54;;;;;;;9.13;4.63;;;11.10;48.70;;;;;;6275627;22;20086;-68
2023/02/28 12:52:41;;;;;;;6.93;4.97;;;11.10;49.20;;;;;;6276031;22;20019;-68
2023/02/28 12:55:16;;;;;;;8.37;4.63;;;11.20;49.40;;;;;;6275580;22;19996;-68
2023/02/28 12:57:53;;;;;;;6.77;4.10;;;11.20;49.60;;;;;;6275794;22;20011;-68
2023/02/28 13:00:22;;;;;;;8.23;4.80;;;11.20;48.80;;;;;;6275757;22;20330;-68
2023/02/28 13:03:06;;;;;;;9.13;5.03;;;11.30;48.90;;;;;;6274096;22;20007;-68
2023/02/28 13:05:41;;;;;;;7.93;5.40;;;11.30;49.30;;;;;;6277976;22;20002;-68
2023/02/28 13:08:13;;;;;;;9.83;5.67;;;11.30;49.00;;;;;;6277694;22;20035;-68
2023/02/28 13:10:49;;;;;;;8.85;5.25;;;11.40;48.50;;;;;;6277774;22;19996;-68
2023/02/28 13:13:30;;;;;;;7.83;5.17;;;11.40;49.00;;;;;;6275859;22;20089;-67